sensor_id;sensor_type;location;lat;lon;timestamp;temperature;humidity
3715;DHT22;1873;49.988;8.674;2022-07-09T00:00:22;19.50;98.70
3715;DHT22;1873;49.988;8.674;2022-07-09T00:02:51;19.50;98.80
3715;DHT22;1873;49.988;8.674;2022-07-09T00:05:20;19.50;98.90
3715;DHT22;1873;49.988;8.674;2022-07-09T00:07:48;19.60;99.00
3715;DHT22;1873;49.988;8.674;2022-07-09T00:10:17;19.60;99.10
3715;DHT22;1873;49.988;8.674;2022-07-09T00:12:47;19.60;99.10
3715;DHT22;1873;49.988;8.674;2022-07-09T00:15:15;19.60;99.10
3715;DHT22;1873;49.988;8.674;2022-07-09T00:17:44;19.60;99.00
3715;DHT22;1873;49.988;8.674;2022-07-09T00:20:12;19.40;99.20
3715;DHT22;1873;49.988;8.674;2022-07-09T00:22:41;19.40;99.60
3715;DHT22;1873;49.988;8.674;2022-07-09T00:25:10;19.30;99.90
3715;DHT22;1873;49.988;8.674;2022-07-09T00:27:39;19.20;99.90
3715;DHT22;1873;49.988;8.674;2022-07-09T00:30:11;19.10;99.90
3715;DHT22;1873;49.988;8.674;2022-07-09T00:32:40;19.10;99.90
3715;DHT22;1873;49.988;8.674;2022-07-09T00:35:09;19.00;99.90
3715;DHT22;1873;49.988;8.674;2022-07-09T00:37:38;19.00;99.90
3715;DHT22;1873;49.988;8.674;2022-07-09T00:40:07;19.00;99.90
3715;DHT22;1873;49.988;8.674;2022-07-09T00:42:35;19.00;99.90
3715;DHT22;1873;49.988;8.674;2022-07-09T00:45:05;18.90;99.90
3715;DHT22;1873;49.988;8.674;2022-07-09T00:47:35;18.90;99.90
3715;DHT22;1873;49.988;8.674;2022-07-09T00:50:05;18.80;99.90
3715;DHT22;1873;49.988;8.674;2022-07-09T00:52:35;18.80;99.90
3715;DHT22;1873;49.988;8.674;2022-07-09T00:55:07;18.90;99.90
3715;DHT22;1873;49.988;8.674;2022-07-09T00:57:36;18.90;99.90
3715;DHT22;1873;49.988;8.674;2022-07-09T01:00:05;18.80;99.90
3715;DHT22;1873;49.988;8.674;2022-07-09T01:02:37;18.80;99.90
3715;DHT22;1873;49.988;8.674;2022-07-09T01:05:07;18.80;99.90
3715;DHT22;1873;49.988;8.674;2022-07-09T01:07:35;18.80;99.90
3715;DHT22;1873;49.988;8.674;2022-07-09T01:10:04;18.80;99.90
3715;DHT22;1873;49.988;8.674;2022-07-09T01:12:32;18.70;99.90
3715;DHT22;1873;49.988;8.674;2022-07-09T01:15:00;18.70;99.90
3715;DHT22;1873;49.988;8.674;2022-07-09T01:17:28;18.60;99.90
3715;DHT22;1873;49.988;8.674;2022-07-09T01:20:08;18.60;99.90
3715;DHT22;1873;49.988;8.674;2022-07-09T01:22:38;18.50;99.90
3715;DHT22;1873;49.988;8.674;2022-07-09T01:25:08;18.50;99.90
3715;DHT22;1873;49.988;8.674;2022-07-09T01:27:39;18.40;99.90
3715;DHT22;1873;49.988;8.674;2022-07-09T01:30:07;18.50;99.90
3715;DHT22;1873;49.988;8.674;2022-07-09T01:32:36;18.40;99.90
3715;DHT22;1873;49.988;8.674;2022-07-09T01:35:05;18.50;99.90
3715;DHT22;1873;49.988;8.674;2022-07-09T01:37:33;18.50;99.90
3715;DHT22;1873;49.988;8.674;2022-07-09T01:40:03;18.40;99.90
3715;DHT22;1873;49.988;8.674;2022-07-09T01:42:32;18.50;99.90
3715;DHT22;1873;49.988;8.674;2022-07-09T01:45:00;18.50;99.90
3715;DHT22;1873;49.988;8.674;2022-07-09T01:47:29;18.50;99.90
3715;DHT22;1873;49.988;8.674;2022-07-09T01:49:57;18.40;99.90
3715;DHT22;1873;49.988;8.674;2022-07-09T01:52:25;18.30;99.90
3715;DHT22;1873;49.988;8.674;2022-07-09T01:54:54;18.30;99.90
3715;DHT22;1873;49.988;8.674;2022-07-09T01:57:24;18.20;99.90
3715;DHT22;1873;49.988;8.674;2022-07-09T01:59:52;18.20;99.90
3715;DHT22;1873;49.988;8.674;2022-07-09T02:02:20;18.20;99.90
3715;DHT22;1873;49.988;8.674;2022-07-09T02:04:51;18.10;99.90
3715;DHT22;1873;49.988;8.674;2022-07-09T02:07:19;18.10;99.90
3715;DHT22;1873;49.988;8.674;2022-07-09T02:09:48;18.20;99.90
3715;DHT22;1873;49.988;8.674;2022-07-09T02:12:16;18.10;99.90
3715;DHT22;1873;49.988;8.674;2022-07-09T02:14:46;18.10;99.90
3715;DHT22;1873;49.988;8.674;2022-07-09T02:17:16;18.10;99.90
3715;DHT22;1873;49.988;8.674;2022-07-09T02:19:44;18.20;99.90
3715;DHT22;1873;49.988;8.674;2022-07-09T02:22:12;18.20;99.90
3715;DHT22;1873;49.988;8.674;2022-07-09T02:24:40;18.30;99.90
3715;DHT22;1873;49.988;8.674;2022-07-09T02:27:09;18.30;99.90
3715;DHT22;1873;49.988;8.674;2022-07-09T02:29:37;18.30;99.90
3715;DHT22;1873;49.988;8.674;2022-07-09T02:32:08;18.20;99.90
3715;DHT22;1873;49.988;8.674;2022-07-09T02:34:40;18.00;99.90
3715;DHT22;1873;49.988;8.674;2022-07-09T02:37:08;18.00;99.90
3715;DHT22;1873;49.988;8.674;2022-07-09T02:39:37;17.80;99.90
3715;DHT22;1873;49.988;8.674;2022-07-09T02:42:06;17.90;99.90
3715;DHT22;1873;49.988;8.674;2022-07-09T02:44:34;17.90;99.90
3715;DHT22;1873;49.988;8.674;2022-07-09T02:47:03;18.00;99.90
3715;DHT22;1873;49.988;8.674;2022-07-09T02:49:32;18.00;99.90
3715;DHT22;1873;49.988;8.674;2022-07-09T02:52:02;18.10;99.90
3715;DHT22;1873;49.988;8.674;2022-07-09T02:54:30;18.00;99.90
3715;DHT22;1873;49.988;8.674;2022-07-09T02:56:59;18.00;99.90
3715;DHT22;1873;49.988;8.674;2022-07-09T02:59:27;18.10;99.90
3715;DHT22;1873;49.988;8.674;2022-07-09T03:01:56;18.10;99.90
3715;DHT22;1873;49.988;8.674;2022-07-09T03:04:24;18.10;99.90
3715;DHT22;1873;49.988;8.674;2022-07-09T03:06:55;18.00;99.90
3715;DHT22;1873;49.988;8.674;2022-07-09T03:09:23;17.90;99.90
3715;DHT22;1873;49.988;8.674;2022-07-09T03:11:52;17.80;99.90
3715;DHT22;1873;49.988;8.674;2022-07-09T03:14:20;17.80;99.90
3715;DHT22;1873;49.988;8.674;2022-07-09T03:16:48;17.70;99.90
3715;DHT22;1873;49.988;8.674;2022-07-09T03:19:18;17.80;99.90
3715;DHT22;1873;49.988;8.674;2022-07-09T03:21:47;17.80;99.90
3715;DHT22;1873;49.988;8.674;2022-07-09T03:24:17;17.90;99.90
3715;DHT22;1873;49.988;8.674;2022-07-09T03:26:45;17.90;99.90
3715;DHT22;1873;49.988;8.674;2022-07-09T03:29:14;17.90;99.90
3715;DHT22;1873;49.988;8.674;2022-07-09T03:31:42;17.90;99.90
3715;DHT22;1873;49.988;8.674;2022-07-09T03:34:10;17.90;99.90
3715;DHT22;1873;49.988;8.674;2022-07-09T03:36:39;17.80;99.90
3715;DHT22;1873;49.988;8.674;2022-07-09T03:39:07;17.80;99.90
3715;DHT22;1873;49.988;8.674;2022-07-09T03:41:38;17.90;99.90
3715;DHT22;1873;49.988;8.674;2022-07-09T03:44:06;18.00;99.90
3715;DHT22;1873;49.988;8.674;2022-07-09T03:46:34;17.90;99.90
3715;DHT22;1873;49.988;8.674;2022-07-09T03:49:04;17.90;99.90
3715;DHT22;1873;49.988;8.674;2022-07-09T03:51:32;17.80;99.90
3715;DHT22;1873;49.988;8.674;2022-07-09T03:54:00;17.80;99.90
3715;DHT22;1873;49.988;8.674;2022-07-09T03:56:29;17.80;99.90
3715;DHT22;1873;49.988;8.674;2022-07-09T03:58:58;17.70;99.90
3715;DHT22;1873;49.988;8.674;2022-07-09T04:01:27;17.70;99.90
3715;DHT22;1873;49.988;8.674;2022-07-09T04:03:55;17.70;99.90
3715;DHT22;1873;49.988;8.674;2022-07-09T04:06:24;17.70;99.90
3715;DHT22;1873;49.988;8.674;2022-07-09T04:08:52;17.80;99.90
3715;DHT22;1873;49.988;8.674;2022-07-09T04:11:21;17.70;99.90
3715;DHT22;1873;49.988;8.674;2022-07-09T04:13:51;17.70;99.90
3715;DHT22;1873;49.988;8.674;2022-07-09T04:16:20;17.70;99.90
3715;DHT22;1873;49.988;8.674;2022-07-09T04:18:49;17.70;99.90
3715;DHT22;1873;49.988;8.674;2022-07-09T04:21:17;17.60;99.90
3715;DHT22;1873;49.988;8.674;2022-07-09T04:23:48;17.60;99.90
3715;DHT22;1873;49.988;8.674;2022-07-09T04:26:17;17.60;99.90
3715;DHT22;1873;49.988;8.674;2022-07-09T04:28:46;17.70;99.90
3715;DHT22;1873;49.988;8.674;2022-07-09T04:31:15;17.60;99.90
3715;DHT22;1873;49.988;8.674;2022-07-09T04:33:47;17.40;99.90
3715;DHT22;1873;49.988;8.674;2022-07-09T04:36:16;17.40;99.90
3715;DHT22;1873;49.988;8.674;2022-07-09T04:38:44;17.40;99.90
3715;DHT22;1873;49.988;8.674;2022-07-09T04:41:12;17.40;99.90
3715;DHT22;1873;49.988;8.674;2022-07-09T04:43:41;17.50;99.90
3715;DHT22;1873;49.988;8.674;2022-07-09T04:46:09;17.40;99.90
3715;DHT22;1873;49.988;8.674;2022-07-09T04:48:38;17.40;99.90
3715;DHT22;1873;49.988;8.674;2022-07-09T04:51:07;17.50;99.90
3715;DHT22;1873;49.988;8.674;2022-07-09T04:53:35;17.60;99.90
3715;DHT22;1873;49.988;8.674;2022-07-09T04:56:05;17.60;99.90
3715;DHT22;1873;49.988;8.674;2022-07-09T04:58:33;17.60;99.90
3715;DHT22;1873;49.988;8.674;2022-07-09T05:01:04;17.60;99.90
3715;DHT22;1873;49.988;8.674;2022-07-09T05:03:32;17.70;99.90
3715;DHT22;1873;49.988;8.674;2022-07-09T05:06:01;17.70;99.90
3715;DHT22;1873;49.988;8.674;2022-07-09T05:08:31;17.70;99.90
3715;DHT22;1873;49.988;8.674;2022-07-09T05:10:59;17.80;99.90
3715;DHT22;1873;49.988;8.674;2022-07-09T05:13:28;17.90;99.90
3715;DHT22;1873;49.988;8.674;2022-07-09T05:15:56;17.90;99.90
3715;DHT22;1873;49.988;8.674;2022-07-09T05:18:24;17.80;99.90
3715;DHT22;1873;49.988;8.674;2022-07-09T05:20:53;17.90;99.90
3715;DHT22;1873;49.988;8.674;2022-07-09T05:23:21;17.80;99.90
3715;DHT22;1873;49.988;8.674;2022-07-09T05:25:51;17.90;99.90
3715;DHT22;1873;49.988;8.674;2022-07-09T05:28:20;17.80;99.90
3715;DHT22;1873;49.988;8.674;2022-07-09T05:30:48;17.80;99.90
3715;DHT22;1873;49.988;8.674;2022-07-09T05:33:36;17.90;99.90
3715;DHT22;1873;49.988;8.674;2022-07-09T05:36:05;18.00;99.90
3715;DHT22;1873;49.988;8.674;2022-07-09T05:38:34;18.00;99.90
3715;DHT22;1873;49.988;8.674;2022-07-09T05:41:04;18.10;99.90
3715;DHT22;1873;49.988;8.674;2022-07-09T05:43:34;18.00;99.90
3715;DHT22;1873;49.988;8.674;2022-07-09T05:46:02;18.10;99.90
3715;DHT22;1873;49.988;8.674;2022-07-09T05:48:31;18.00;99.90
3715;DHT22;1873;49.988;8.674;2022-07-09T05:51:00;18.00;99.90
3715;DHT22;1873;49.988;8.674;2022-07-09T05:53:28;18.10;99.90
3715;DHT22;1873;49.988;8.674;2022-07-09T05:55:56;18.10;99.90
3715;DHT22;1873;49.988;8.674;2022-07-09T05:58:26;18.20;99.90
3715;DHT22;1873;49.988;8.674;2022-07-09T06:00:54;18.30;99.90
3715;DHT22;1873;49.988;8.674;2022-07-09T06:03:23;18.30;99.90
3715;DHT22;1873;49.988;8.674;2022-07-09T06:05:51;18.30;99.90
3715;DHT22;1873;49.988;8.674;2022-07-09T06:08:19;18.40;99.90
3715;DHT22;1873;49.988;8.674;2022-07-09T06:10:50;18.40;99.90
3715;DHT22;1873;49.988;8.674;2022-07-09T06:13:18;18.50;99.90
3715;DHT22;1873;49.988;8.674;2022-07-09T06:15:49;18.50;99.90
3715;DHT22;1873;49.988;8.674;2022-07-09T06:18:17;18.60;99.90
3715;DHT22;1873;49.988;8.674;2022-07-09T06:20:46;18.70;99.90
3715;DHT22;1873;49.988;8.674;2022-07-09T06:23:14;18.70;99.90
3715;DHT22;1873;49.988;8.674;2022-07-09T06:25:43;18.80;99.90
3715;DHT22;1873;49.988;8.674;2022-07-09T06:28:11;18.90;99.90
3715;DHT22;1873;49.988;8.674;2022-07-09T06:30:39;18.90;99.90
3715;DHT22;1873;49.988;8.674;2022-07-09T06:33:09;19.00;99.90
3715;DHT22;1873;49.988;8.674;2022-07-09T06:35:37;19.00;99.90
3715;DHT22;1873;49.988;8.674;2022-07-09T06:38:08;19.10;99.90
3715;DHT22;1873;49.988;8.674;2022-07-09T06:40:36;19.20;99.90
3715;DHT22;1873;49.988;8.674;2022-07-09T06:43:05;19.30;99.90
3715;DHT22;1873;49.988;8.674;2022-07-09T06:45:35;19.40;99.90
3715;DHT22;1873;49.988;8.674;2022-07-09T06:48:04;19.60;99.90
3715;DHT22;1873;49.988;8.674;2022-07-09T06:50:34;19.70;99.90
3715;DHT22;1873;49.988;8.674;2022-07-09T06:53:02;19.80;99.90
3715;DHT22;1873;49.988;8.674;2022-07-09T06:55:31;20.00;99.90
3715;DHT22;1873;49.988;8.674;2022-07-09T06:57:59;20.10;99.90
3715;DHT22;1873;49.988;8.674;2022-07-09T07:00:28;20.20;99.90
3715;DHT22;1873;49.988;8.674;2022-07-09T07:02:56;20.30;99.90
3715;DHT22;1873;49.988;8.674;2022-07-09T07:05:27;20.40;99.90
3715;DHT22;1873;49.988;8.674;2022-07-09T07:07:58;20.50;99.90
3715;DHT22;1873;49.988;8.674;2022-07-09T07:10:28;20.40;99.90
3715;DHT22;1873;49.988;8.674;2022-07-09T07:12:56;20.40;99.90
3715;DHT22;1873;49.988;8.674;2022-07-09T07:15:25;20.50;99.90
3715;DHT22;1873;49.988;8.674;2022-07-09T07:17:56;20.50;99.90
3715;DHT22;1873;49.988;8.674;2022-07-09T07:20:24;20.60;99.90
3715;DHT22;1873;49.988;8.674;2022-07-09T07:22:53;20.60;99.90
3715;DHT22;1873;49.988;8.674;2022-07-09T07:25:23;20.50;99.90
3715;DHT22;1873;49.988;8.674;2022-07-09T07:27:51;20.50;99.90
3715;DHT22;1873;49.988;8.674;2022-07-09T07:30:20;20.50;99.90
3715;DHT22;1873;49.988;8.674;2022-07-09T07:32:49;20.50;99.90
3715;DHT22;1873;49.988;8.674;2022-07-09T07:35:17;20.50;99.90
3715;DHT22;1873;49.988;8.674;2022-07-09T07:37:46;20.50;99.90
3715;DHT22;1873;49.988;8.674;2022-07-09T07:40:15;20.50;99.90
3715;DHT22;1873;49.988;8.674;2022-07-09T07:42:45;20.30;99.90
3715;DHT22;1873;49.988;8.674;2022-07-09T07:45:13;20.40;99.90
3715;DHT22;1873;49.988;8.674;2022-07-09T07:47:42;20.30;99.90
3715;DHT22;1873;49.988;8.674;2022-07-09T07:50:10;20.30;99.90
3715;DHT22;1873;49.988;8.674;2022-07-09T07:52:38;20.30;99.90
3715;DHT22;1873;49.988;8.674;2022-07-09T07:55:13;20.50;99.90
3715;DHT22;1873;49.988;8.674;2022-07-09T07:58:11;20.60;99.90
3715;DHT22;1873;49.988;8.674;2022-07-09T08:00:39;21.30;99.90
3715;DHT22;1873;49.988;8.674;2022-07-09T08:03:08;22.90;99.90
3715;DHT22;1873;49.988;8.674;2022-07-09T08:05:36;23.90;99.90
3715;DHT22;1873;49.988;8.674;2022-07-09T08:08:04;23.60;99.90
3715;DHT22;1873;49.988;8.674;2022-07-09T08:10:33;24.30;99.90
3715;DHT22;1873;49.988;8.674;2022-07-09T08:13:02;24.70;99.90
3715;DHT22;1873;49.988;8.674;2022-07-09T08:15:32;24.70;98.60
3715;DHT22;1873;49.988;8.674;2022-07-09T08:18:00;24.60;98.50
3715;DHT22;1873;49.988;8.674;2022-07-09T08:20:29;25.10;98.40
3715;DHT22;1873;49.988;8.674;2022-07-09T08:22:57;25.40;97.10
3715;DHT22;1873;49.988;8.674;2022-07-09T08:25:26;24.70;97.40
3715;DHT22;1873;49.988;8.674;2022-07-09T08:27:54;24.10;97.90
3715;DHT22;1873;49.988;8.674;2022-07-09T08:30:23;23.60;97.10
3715;DHT22;1873;49.988;8.674;2022-07-09T08:32:52;23.20;97.20
3715;DHT22;1873;49.988;8.674;2022-07-09T08:35:21;22.80;95.80
3715;DHT22;1873;49.988;8.674;2022-07-09T08:37:49;22.50;96.70
3715;DHT22;1873;49.988;8.674;2022-07-09T08:40:17;22.30;96.80
3715;DHT22;1873;49.988;8.674;2022-07-09T08:42:46;22.10;97.70
3715;DHT22;1873;49.988;8.674;2022-07-09T08:45:17;22.00;97.10
3715;DHT22;1873;49.988;8.674;2022-07-09T08:47:56;21.90;97.60
3715;DHT22;1873;49.988;8.674;2022-07-09T08:50:28;22.00;97.40
3715;DHT22;1873;49.988;8.674;2022-07-09T08:52:57;22.30;97.70
3715;DHT22;1873;49.988;8.674;2022-07-09T08:55:28;22.50;97.00
3715;DHT22;1873;49.988;8.674;2022-07-09T08:57:57;22.70;96.50
3715;DHT22;1873;49.988;8.674;2022-07-09T09:00:28;22.60;96.30
3715;DHT22;1873;49.988;8.674;2022-07-09T09:02:58;22.40;96.30
3715;DHT22;1873;49.988;8.674;2022-07-09T09:05:27;22.20;96.70
3715;DHT22;1873;49.988;8.674;2022-07-09T09:07:56;22.00;97.30
3715;DHT22;1873;49.988;8.674;2022-07-09T09:10:25;21.90;97.60
3715;DHT22;1873;49.988;8.674;2022-07-09T09:12:57;22.00;98.10
3715;DHT22;1873;49.988;8.674;2022-07-09T09:15:26;22.90;97.40
3715;DHT22;1873;49.988;8.674;2022-07-09T09:17:54;24.50;96.20
3715;DHT22;1873;49.988;8.674;2022-07-09T09:20:24;25.30;93.90
3715;DHT22;1873;49.988;8.674;2022-07-09T09:22:53;25.90;91.80
3715;DHT22;1873;49.988;8.674;2022-07-09T09:25:28;26.10;90.70
3715;DHT22;1873;49.988;8.674;2022-07-09T09:27:58;25.40;89.10
3715;DHT22;1873;49.988;8.674;2022-07-09T09:30:30;24.60;90.30
3715;DHT22;1873;49.988;8.674;2022-07-09T09:33:01;23.90;91.30
3715;DHT22;1873;49.988;8.674;2022-07-09T09:35:33;23.50;92.10
3715;DHT22;1873;49.988;8.674;2022-07-09T09:38:02;23.20;93.00
3715;DHT22;1873;49.988;8.674;2022-07-09T09:40:30;23.30;93.20
3715;DHT22;1873;49.988;8.674;2022-07-09T09:43:01;24.10;92.30
3715;DHT22;1873;49.988;8.674;2022-07-09T09:45:31;25.40;90.60
3715;DHT22;1873;49.988;8.674;2022-07-09T09:48:01;26.10;88.30
3715;DHT22;1873;49.988;8.674;2022-07-09T09:50:32;26.00;87.70
3715;DHT22;1873;49.988;8.674;2022-07-09T09:53:07;26.40;86.70
3715;DHT22;1873;49.988;8.674;2022-07-09T09:55:37;26.90;82.30
3715;DHT22;1873;49.988;8.674;2022-07-09T09:58:31;27.30;81.10
3715;DHT22;1873;49.988;8.674;2022-07-09T10:01:00;27.60;78.20
3715;DHT22;1873;49.988;8.674;2022-07-09T10:03:30;27.20;78.20
3715;DHT22;1873;49.988;8.674;2022-07-09T10:06:07;26.30;78.30
3715;DHT22;1873;49.988;8.674;2022-07-09T10:08:36;25.50;79.40
3715;DHT22;1873;49.988;8.674;2022-07-09T10:11:05;24.80;81.20
3715;DHT22;1873;49.988;8.674;2022-07-09T10:13:33;24.60;83.20
3715;DHT22;1873;49.988;8.674;2022-07-09T10:16:05;24.30;85.90
3715;DHT22;1873;49.988;8.674;2022-07-09T10:18:34;24.00;87.30
3715;DHT22;1873;49.988;8.674;2022-07-09T10:21:04;23.90;88.00
3715;DHT22;1873;49.988;8.674;2022-07-09T10:23:34;23.60;88.70
3715;DHT22;1873;49.988;8.674;2022-07-09T10:26:04;23.50;90.00
3715;DHT22;1873;49.988;8.674;2022-07-09T10:28:40;23.90;90.10
3715;DHT22;1873;49.988;8.674;2022-07-09T10:31:08;24.60;88.00
3715;DHT22;1873;49.988;8.674;2022-07-09T10:33:50;25.40;83.70
3715;DHT22;1873;49.988;8.674;2022-07-09T10:36:32;25.70;81.80
3715;DHT22;1873;49.988;8.674;2022-07-09T10:39:11;25.40;79.90
3715;DHT22;1873;49.988;8.674;2022-07-09T10:41:40;25.70;80.00
3715;DHT22;1873;49.988;8.674;2022-07-09T10:44:08;26.30;78.00
3715;DHT22;1873;49.988;8.674;2022-07-09T10:46:38;26.50;76.30
3715;DHT22;1873;49.988;8.674;2022-07-09T10:49:12;26.30;75.90
3715;DHT22;1873;49.988;8.674;2022-07-09T10:51:41;26.70;74.80
3715;DHT22;1873;49.988;8.674;2022-07-09T10:54:16;27.10;73.60
3715;DHT22;1873;49.988;8.674;2022-07-09T10:56:46;27.50;71.30
3715;DHT22;1873;49.988;8.674;2022-07-09T10:59:18;27.90;70.50
3715;DHT22;1873;49.988;8.674;2022-07-09T11:01:47;27.80;69.30
3715;DHT22;1873;49.988;8.674;2022-07-09T11:04:26;27.50;66.90
3715;DHT22;1873;49.988;8.674;2022-07-09T11:06:57;27.50;66.70
3715;DHT22;1873;49.988;8.674;2022-07-09T11:09:29;27.30;67.70
3715;DHT22;1873;49.988;8.674;2022-07-09T11:11:57;27.10;68.90
3715;DHT22;1873;49.988;8.674;2022-07-09T11:14:26;27.10;68.90
3715;DHT22;1873;49.988;8.674;2022-07-09T11:16:55;26.90;70.80
3715;DHT22;1873;49.988;8.674;2022-07-09T11:19:25;26.60;68.30
3715;DHT22;1873;49.988;8.674;2022-07-09T11:22:01;26.50;69.10
3715;DHT22;1873;49.988;8.674;2022-07-09T11:24:32;26.40;69.90
3715;DHT22;1873;49.988;8.674;2022-07-09T11:27:02;26.60;70.20
3715;DHT22;1873;49.988;8.674;2022-07-09T11:29:32;26.70;68.60
3715;DHT22;1873;49.988;8.674;2022-07-09T11:32:03;26.70;68.70
3715;DHT22;1873;49.988;8.674;2022-07-09T11:34:32;26.70;68.60
3715;DHT22;1873;49.988;8.674;2022-07-09T11:37:01;26.90;68.00
3715;DHT22;1873;49.988;8.674;2022-07-09T11:39:35;26.90;67.80
3715;DHT22;1873;49.988;8.674;2022-07-09T11:42:05;26.60;67.80
3715;DHT22;1873;49.988;8.674;2022-07-09T11:44:34;26.20;69.30
3715;DHT22;1873;49.988;8.674;2022-07-09T11:47:03;26.20;71.00
3715;DHT22;1873;49.988;8.674;2022-07-09T11:49:34;26.60;70.00
3715;DHT22;1873;49.988;8.674;2022-07-09T11:52:04;27.00;69.40
3715;DHT22;1873;49.988;8.674;2022-07-09T11:54:34;27.60;67.20
3715;DHT22;1873;49.988;8.674;2022-07-09T11:57:06;28.10;65.10
3715;DHT22;1873;49.988;8.674;2022-07-09T11:59:46;28.40;63.60
3715;DHT22;1873;49.988;8.674;2022-07-09T12:02:23;28.40;62.40
3715;DHT22;1873;49.988;8.674;2022-07-09T12:04:51;27.80;62.50
3715;DHT22;1873;49.988;8.674;2022-07-09T12:07:20;27.30;62.80
3715;DHT22;1873;49.988;8.674;2022-07-09T12:10:00;27.00;65.20
3715;DHT22;1873;49.988;8.674;2022-07-09T12:12:29;26.60;64.50
3715;DHT22;1873;49.988;8.674;2022-07-09T12:15:00;26.20;65.70
3715;DHT22;1873;49.988;8.674;2022-07-09T12:17:34;25.90;64.90
3715;DHT22;1873;49.988;8.674;2022-07-09T12:20:06;25.70;65.80
3715;DHT22;1873;49.988;8.674;2022-07-09T12:22:36;25.70;66.30
3715;DHT22;1873;49.988;8.674;2022-07-09T12:25:07;25.70;67.80
3715;DHT22;1873;49.988;8.674;2022-07-09T12:27:36;25.70;66.90
3715;DHT22;1873;49.988;8.674;2022-07-09T12:30:06;25.70;65.20
3715;DHT22;1873;49.988;8.674;2022-07-09T12:32:34;25.70;64.10
3715;DHT22;1873;49.988;8.674;2022-07-09T12:35:03;25.70;65.20
3715;DHT22;1873;49.988;8.674;2022-07-09T12:37:31;25.70;65.90
3715;DHT22;1873;49.988;8.674;2022-07-09T12:40:00;25.70;65.90
3715;DHT22;1873;49.988;8.674;2022-07-09T12:42:30;25.70;64.40
3715;DHT22;1873;49.988;8.674;2022-07-09T12:44:59;25.70;63.40
3715;DHT22;1873;49.988;8.674;2022-07-09T12:47:35;25.60;64.40
3715;DHT22;1873;49.988;8.674;2022-07-09T12:50:05;25.50;63.00
3715;DHT22;1873;49.988;8.674;2022-07-09T12:52:34;25.40;63.80
3715;DHT22;1873;49.988;8.674;2022-07-09T12:55:03;25.50;64.90
3715;DHT22;1873;49.988;8.674;2022-07-09T12:57:59;25.50;62.80
3715;DHT22;1873;49.988;8.674;2022-07-09T13:00:27;25.50;63.50
3715;DHT22;1873;49.988;8.674;2022-07-09T13:02:55;25.40;62.10
3715;DHT22;1873;49.988;8.674;2022-07-09T13:05:24;25.40;62.40
3715;DHT22;1873;49.988;8.674;2022-07-09T13:07:53;25.30;62.40
3715;DHT22;1873;49.988;8.674;2022-07-09T13:10:21;25.20;63.20
3715;DHT22;1873;49.988;8.674;2022-07-09T13:12:50;25.20;63.40
3715;DHT22;1873;49.988;8.674;2022-07-09T13:15:20;25.20;63.30
3715;DHT22;1873;49.988;8.674;2022-07-09T13:17:49;25.30;64.10
3715;DHT22;1873;49.988;8.674;2022-07-09T13:20:18;25.30;64.80
3715;DHT22;1873;49.988;8.674;2022-07-09T13:22:46;25.20;64.30
3715;DHT22;1873;49.988;8.674;2022-07-09T13:25:15;25.30;63.80
3715;DHT22;1873;49.988;8.674;2022-07-09T13:27:46;25.30;63.30
3715;DHT22;1873;49.988;8.674;2022-07-09T13:30:14;25.20;62.10
3715;DHT22;1873;49.988;8.674;2022-07-09T13:32:49;25.20;62.60
3715;DHT22;1873;49.988;8.674;2022-07-09T13:35:18;25.10;62.60
3715;DHT22;1873;49.988;8.674;2022-07-09T13:37:46;25.10;61.80
3715;DHT22;1873;49.988;8.674;2022-07-09T13:40:17;25.00;61.60
3715;DHT22;1873;49.988;8.674;2022-07-09T13:42:45;25.00;60.90
3715;DHT22;1873;49.988;8.674;2022-07-09T13:45:16;25.00;61.00
3715;DHT22;1873;49.988;8.674;2022-07-09T13:47:49;25.00;62.20
3715;DHT22;1873;49.988;8.674;2022-07-09T13:50:17;25.00;62.20
3715;DHT22;1873;49.988;8.674;2022-07-09T13:52:46;25.00;62.30
3715;DHT22;1873;49.988;8.674;2022-07-09T13:55:17;25.00;62.80
3715;DHT22;1873;49.988;8.674;2022-07-09T13:57:45;24.80;62.80
3715;DHT22;1873;49.988;8.674;2022-07-09T14:00:14;24.80;61.60
3715;DHT22;1873;49.988;8.674;2022-07-09T14:02:42;24.80;64.90
3715;DHT22;1873;49.988;8.674;2022-07-09T14:05:12;24.80;65.10
3715;DHT22;1873;49.988;8.674;2022-07-09T14:07:44;24.80;64.10
3715;DHT22;1873;49.988;8.674;2022-07-09T14:10:15;24.80;62.70
3715;DHT22;1873;49.988;8.674;2022-07-09T14:12:46;24.90;63.90
3715;DHT22;1873;49.988;8.674;2022-07-09T14:15:15;24.90;63.20
3715;DHT22;1873;49.988;8.674;2022-07-09T14:17:46;24.80;62.10
3715;DHT22;1873;49.988;8.674;2022-07-09T14:20:17;24.80;62.90
3715;DHT22;1873;49.988;8.674;2022-07-09T14:22:47;24.70;63.30
3715;DHT22;1873;49.988;8.674;2022-07-09T14:25:18;24.80;63.40
3715;DHT22;1873;49.988;8.674;2022-07-09T14:27:46;24.80;63.30
3715;DHT22;1873;49.988;8.674;2022-07-09T14:30:15;24.80;64.90
3715;DHT22;1873;49.988;8.674;2022-07-09T14:32:45;24.80;65.10
3715;DHT22;1873;49.988;8.674;2022-07-09T14:35:13;24.70;65.70
3715;DHT22;1873;49.988;8.674;2022-07-09T14:37:44;24.70;66.90
3715;DHT22;1873;49.988;8.674;2022-07-09T14:40:12;24.70;66.40
3715;DHT22;1873;49.988;8.674;2022-07-09T14:42:41;24.80;66.90
3715;DHT22;1873;49.988;8.674;2022-07-09T14:45:10;24.80;65.50
3715;DHT22;1873;49.988;8.674;2022-07-09T14:47:38;24.80;65.00
3715;DHT22;1873;49.988;8.674;2022-07-09T14:50:09;24.70;65.70
3715;DHT22;1873;49.988;8.674;2022-07-09T14:52:38;24.70;65.10
3715;DHT22;1873;49.988;8.674;2022-07-09T14:55:09;24.60;65.50
3715;DHT22;1873;49.988;8.674;2022-07-09T14:57:38;24.60;67.20
3715;DHT22;1873;49.988;8.674;2022-07-09T15:00:09;24.70;66.50
3715;DHT22;1873;49.988;8.674;2022-07-09T15:02:40;24.70;66.10
3715;DHT22;1873;49.988;8.674;2022-07-09T15:05:09;24.70;67.30
3715;DHT22;1873;49.988;8.674;2022-07-09T15:07:37;24.70;66.90
3715;DHT22;1873;49.988;8.674;2022-07-09T15:10:08;24.70;66.50
3715;DHT22;1873;49.988;8.674;2022-07-09T15:12:36;24.70;66.70
3715;DHT22;1873;49.988;8.674;2022-07-09T15:15:05;24.70;66.90
3715;DHT22;1873;49.988;8.674;2022-07-09T15:17:35;24.70;66.30
3715;DHT22;1873;49.988;8.674;2022-07-09T15:20:10;24.70;66.00
3715;DHT22;1873;49.988;8.674;2022-07-09T15:22:39;24.60;65.90
3715;DHT22;1873;49.988;8.674;2022-07-09T15:25:09;24.60;66.30
3715;DHT22;1873;49.988;8.674;2022-07-09T15:27:38;24.60;66.50
3715;DHT22;1873;49.988;8.674;2022-07-09T15:30:09;24.60;66.00
3715;DHT22;1873;49.988;8.674;2022-07-09T15:32:38;24.50;66.00
3715;DHT22;1873;49.988;8.674;2022-07-09T15:35:08;24.50;66.20
3715;DHT22;1873;49.988;8.674;2022-07-09T15:37:38;24.60;65.80
3715;DHT22;1873;49.988;8.674;2022-07-09T15:40:09;24.60;65.70
3715;DHT22;1873;49.988;8.674;2022-07-09T15:42:42;24.60;65.70
3715;DHT22;1873;49.988;8.674;2022-07-09T15:45:12;24.50;66.00
3715;DHT22;1873;49.988;8.674;2022-07-09T15:47:41;24.50;66.70
3715;DHT22;1873;49.988;8.674;2022-07-09T15:50:18;24.50;65.50
3715;DHT22;1873;49.988;8.674;2022-07-09T15:52:47;24.40;64.70
3715;DHT22;1873;49.988;8.674;2022-07-09T15:55:17;24.50;65.00
3715;DHT22;1873;49.988;8.674;2022-07-09T15:57:46;24.50;65.00
3715;DHT22;1873;49.988;8.674;2022-07-09T16:00:14;24.50;65.90
3715;DHT22;1873;49.988;8.674;2022-07-09T16:02:43;24.50;65.80
3715;DHT22;1873;49.988;8.674;2022-07-09T16:05:14;24.40;65.10
3715;DHT22;1873;49.988;8.674;2022-07-09T16:07:44;24.40;65.00
3715;DHT22;1873;49.988;8.674;2022-07-09T16:10:13;24.30;64.90
3715;DHT22;1873;49.988;8.674;2022-07-09T16:12:46;24.30;65.60
3715;DHT22;1873;49.988;8.674;2022-07-09T16:15:22;24.20;66.60
3715;DHT22;1873;49.988;8.674;2022-07-09T16:17:53;24.20;66.10